sensor_id;sensor_type;location;lat;lon;timestamp;temperature;humidity
70294;DHT22;74367;35.280;-77.632;2024-03-23T00:54:02;15.14;94.36
70294;DHT22;74367;35.280;-77.632;2024-03-23T00:56:29;15.14;93.53
70294;DHT22;74367;35.280;-77.632;2024-03-23T00:58:55;15.11;92.98
70294;DHT22;74367;35.280;-77.632;2024-03-23T01:01:22;15.13;94.12
70294;DHT22;74367;35.280;-77.632;2024-03-23T01:03:48;15.10;91.74
70294;DHT22;74367;35.280;-77.632;2024-03-23T01:06:14;15.06;93.53
70294;DHT22;74367;35.280;-77.632;2024-03-23T01:08:40;15.16;93.41
70294;DHT22;74367;35.280;-77.632;2024-03-23T01:11:07;15.24;91.97
70294;DHT22;74367;35.280;-77.632;2024-03-23T01:13:34;15.17;91.95
70294;DHT22;74367;35.280;-77.632;2024-03-23T01:16:00;15.14;93.87
70294;DHT22;74367;35.280;-77.632;2024-03-23T01:18:26;15.08;92.92
70294;DHT22;74367;35.280;-77.632;2024-03-23T01:20:52;15.11;93.35
70294;DHT22;74367;35.280;-77.632;2024-03-23T01:23:18;15.14;93.62
70294;DHT22;74367;35.280;-77.632;2024-03-23T01:25:52;15.00;92.35
70294;DHT22;74367;35.280;-77.632;2024-03-23T01:28:22;15.03;93.51
70294;DHT22;74367;35.280;-77.632;2024-03-23T01:30:49;15.04;94.19
70294;DHT22;74367;35.280;-77.632;2024-03-23T01:33:15;15.03;95.14
70294;DHT22;74367;35.280;-77.632;2024-03-23T01:35:42;14.94;93.74
70294;DHT22;74367;35.280;-77.632;2024-03-23T01:38:08;15.02;94.77
70294;DHT22;74367;35.280;-77.632;2024-03-23T01:40:33;14.94;93.50
70294;DHT22;74367;35.280;-77.632;2024-03-23T01:43:08;14.93;95.99
70294;DHT22;74367;35.280;-77.632;2024-03-23T01:45:34;14.93;95.28
70294;DHT22;74367;35.280;-77.632;2024-03-23T01:48:01;14.89;95.60
70294;DHT22;74367;35.280;-77.632;2024-03-23T01:50:28;14.94;96.45
70294;DHT22;74367;35.280;-77.632;2024-03-23T01:53:01;14.83;94.23
70294;DHT22;74367;35.280;-77.632;2024-03-23T01:55:28;14.90;95.74
70294;DHT22;74367;35.280;-77.632;2024-03-23T01:57:56;14.92;97.45
70294;DHT22;74367;35.280;-77.632;2024-03-23T02:00:23;14.84;97.37
70294;DHT22;74367;35.280;-77.632;2024-03-23T02:02:49;14.77;97.93
70294;DHT22;74367;35.280;-77.632;2024-03-23T02:05:16;14.79;97.35
70294;DHT22;74367;35.280;-77.632;2024-03-23T02:07:43;14.77;98.02
70294;DHT22;74367;35.280;-77.632;2024-03-23T02:10:09;14.72;98.70
70294;DHT22;74367;35.280;-77.632;2024-03-23T02:12:36;14.75;99.09
70294;DHT22;74367;35.280;-77.632;2024-03-23T02:15:03;14.69;98.57
70294;DHT22;74367;35.280;-77.632;2024-03-23T02:17:30;14.75;99.44
70294;DHT22;74367;35.280;-77.632;2024-03-23T02:19:57;14.79;99.32
70294;DHT22;74367;35.280;-77.632;2024-03-23T02:22:22;14.73;98.74
70294;DHT22;74367;35.280;-77.632;2024-03-23T02:24:48;14.76;99.32
70294;DHT22;74367;35.280;-77.632;2024-03-23T02:27:15;14.69;98.08
70294;DHT22;74367;35.280;-77.632;2024-03-23T02:29:41;14.69;98.89
70294;DHT22;74367;35.280;-77.632;2024-03-23T02:32:07;14.73;99.24
70294;DHT22;74367;35.280;-77.632;2024-03-23T02:34:35;14.65;99.13
70294;DHT22;74367;35.280;-77.632;2024-03-23T02:37:01;14.66;99.42
70294;DHT22;74367;35.280;-77.632;2024-03-23T02:39:27;14.65;98.92
70294;DHT22;74367;35.280;-77.632;2024-03-23T02:41:53;14.68;99.42
70294;DHT22;74367;35.280;-77.632;2024-03-23T02:44:19;14.68;99.83
70294;DHT22;74367;35.280;-77.632;2024-03-23T02:46:45;14.53;98.21
70294;DHT22;74367;35.280;-77.632;2024-03-23T02:49:11;14.62;99.76
70294;DHT22;74367;35.280;-77.632;2024-03-23T02:51:37;14.61;99.81
70294;DHT22;74367;35.280;-77.632;2024-03-23T02:54:03;14.66;99.26
70294;DHT22;74367;35.280;-77.632;2024-03-23T02:56:32;14.63;99.41
70294;DHT22;74367;35.280;-77.632;2024-03-23T02:58:58;14.63;99.11
70294;DHT22;74367;35.280;-77.632;2024-03-23T03:01:24;14.65;99.69
70294;DHT22;74367;35.280;-77.632;2024-03-23T03:03:51;14.66;99.32
70294;DHT22;74367;35.280;-77.632;2024-03-23T03:06:24;14.68;99.99
70294;DHT22;74367;35.280;-77.632;2024-03-23T03:08:50;14.66;98.88
70294;DHT22;74367;35.280;-77.632;2024-03-23T03:11:17;14.75;99.99
70294;DHT22;74367;35.280;-77.632;2024-03-23T03:13:43;14.66;99.17
70294;DHT22;74367;35.280;-77.632;2024-03-23T03:16:10;14.65;99.17
70294;DHT22;74367;35.280;-77.632;2024-03-23T03:18:36;14.63;98.73
70294;DHT22;74367;35.280;-77.632;2024-03-23T03:21:03;14.68;99.99
70294;DHT22;74367;35.280;-77.632;2024-03-23T03:23:31;14.75;99.99
70294;DHT22;74367;35.280;-77.632;2024-03-23T03:25:56;14.73;99.96
70294;DHT22;74367;35.280;-77.632;2024-03-23T03:28:23;14.68;99.27
70294;DHT22;74367;35.280;-77.632;2024-03-23T03:30:51;14.79;99.99
70294;DHT22;74367;35.280;-77.632;2024-03-23T03:33:17;14.79;99.99
70294;DHT22;74367;35.280;-77.632;2024-03-23T03:35:43;14.71;99.73
70294;DHT22;74367;35.280;-77.632;2024-03-23T03:38:10;14.73;99.90
70294;DHT22;74367;35.280;-77.632;2024-03-23T03:40:36;14.71;99.57
70294;DHT22;74367;35.280;-77.632;2024-03-23T03:43:02;14.73;99.82
70294;DHT22;74367;35.280;-77.632;2024-03-23T03:45:28;14.69;99.66
70294;DHT22;74367;35.280;-77.632;2024-03-23T03:47:54;14.69;98.97
70294;DHT22;74367;35.280;-77.632;2024-03-23T03:50:21;14.76;99.62
70294;DHT22;74367;35.280;-77.632;2024-03-23T03:52:47;14.72;99.99
70294;DHT22;74367;35.280;-77.632;2024-03-23T03:55:14;14.62;99.99
70294;DHT22;74367;35.280;-77.632;2024-03-23T03:57:40;14.51;99.62
70294;DHT22;74367;35.280;-77.632;2024-03-23T04:00:07;14.53;99.99
70294;DHT22;74367;35.280;-77.632;2024-03-23T04:02:37;14.53;99.99
70294;DHT22;74367;35.280;-77.632;2024-03-23T04:05:04;14.53;99.99
70294;DHT22;74367;35.280;-77.632;2024-03-23T04:07:30;14.59;99.57
70294;DHT22;74367;35.280;-77.632;2024-03-23T04:09:56;14.59;99.28
70294;DHT22;74367;35.280;-77.632;2024-03-23T04:12:22;14.63;99.88
70294;DHT22;74367;35.280;-77.632;2024-03-23T04:14:48;14.62;99.83
70294;DHT22;74367;35.280;-77.632;2024-03-23T04:17:15;14.65;99.99
70294;DHT22;74367;35.280;-77.632;2024-03-23T04:19:41;14.73;99.99
70294;DHT22;74367;35.280;-77.632;2024-03-23T04:22:08;14.76;99.99
70294;DHT22;74367;35.280;-77.632;2024-03-23T04:24:34;14.79;99.99
70294;DHT22;74367;35.280;-77.632;2024-03-23T04:27:00;14.82;99.99
70294;DHT22;74367;35.280;-77.632;2024-03-23T04:29:26;14.73;99.99
70294;DHT22;74367;35.280;-77.632;2024-03-23T04:31:52;14.77;99.99
70294;DHT22;74367;35.280;-77.632;2024-03-23T04:34:18;14.77;99.99
70294;DHT22;74367;35.280;-77.632;2024-03-23T04:36:44;14.80;99.99
70294;DHT22;74367;35.280;-77.632;2024-03-23T04:39:10;14.73;99.99
70294;DHT22;74367;35.280;-77.632;2024-03-23T04:41:36;14.65;99.99
70294;DHT22;74367;35.280;-77.632;2024-03-23T04:44:02;14.66;99.99
70294;DHT22;74367;35.280;-77.632;2024-03-23T04:46:28;14.65;99.99
70294;DHT22;74367;35.280;-77.632;2024-03-23T04:48:54;14.65;99.99
70294;DHT22;74367;35.280;-77.632;2024-03-23T04:51:23;14.66;99.99
70294;DHT22;74367;35.280;-77.632;2024-03-23T04:53:50;14.61;99.99
70294;DHT22;74367;35.280;-77.632;2024-03-23T04:56:16;14.59;99.99
70294;DHT22;74367;35.280;-77.632;2024-03-23T04:58:45;14.62;99.99
70294;DHT22;74367;35.280;-77.632;2024-03-23T05:01:11;14.63;99.99
70294;DHT22;74367;35.280;-77.632;2024-03-23T05:03:38;14.65;99.99
70294;DHT22;74367;35.280;-77.632;2024-03-23T05:06:04;14.62;99.99
70294;DHT22;74367;35.280;-77.632;2024-03-23T05:08:31;14.66;99.99
70294;DHT22;74367;35.280;-77.632;2024-03-23T05:10:57;14.71;99.99
70294;DHT22;74367;35.280;-77.632;2024-03-23T05:13:23;14.71;99.99
70294;DHT22;74367;35.280;-77.632;2024-03-23T05:15:55;14.71;99.99
70294;DHT22;74367;35.280;-77.632;2024-03-23T05:18:21;14.68;99.99
70294;DHT22;74367;35.280;-77.632;2024-03-23T05:20:47;14.65;99.99
70294;DHT22;74367;35.280;-77.632;2024-03-23T05:23:13;14.65;99.99
70294;DHT22;74367;35.280;-77.632;2024-03-23T05:25:40;14.63;99.99
70294;DHT22;74367;35.280;-77.632;2024-03-23T05:28:06;14.66;99.99
70294;DHT22;74367;35.280;-77.632;2024-03-23T05:30:32;14.65;99.99
70294;DHT22;74367;35.280;-77.632;2024-03-23T05:32:58;14.63;99.99
70294;DHT22;74367;35.280;-77.632;2024-03-23T05:35:24;14.62;99.99
70294;DHT22;74367;35.280;-77.632;2024-03-23T05:37:50;14.61;99.99
70294;DHT22;74367;35.280;-77.632;2024-03-23T05:40:16;14.62;99.99
70294;DHT22;74367;35.280;-77.632;2024-03-23T05:42:42;14.63;99.99
70294;DHT22;74367;35.280;-77.632;2024-03-23T05:45:08;14.62;99.99
70294;DHT22;74367;35.280;-77.632;2024-03-23T05:47:35;14.62;99.99
70294;DHT22;74367;35.280;-77.632;2024-03-23T05:50:01;14.63;99.99
70294;DHT22;74367;35.280;-77.632;2024-03-23T05:52:28;14.63;99.99
70294;DHT22;74367;35.280;-77.632;2024-03-23T05:54:55;14.63;99.99
70294;DHT22;74367;35.280;-77.632;2024-03-23T05:57:21;14.66;99.99
70294;DHT22;74367;35.280;-77.632;2024-03-23T05:59:47;14.69;99.99
70294;DHT22;74367;35.280;-77.632;2024-03-23T06:02:13;14.71;99.99
70294;DHT22;74367;35.280;-77.632;2024-03-23T06:04:40;14.72;99.99
70294;DHT22;74367;35.280;-77.632;2024-03-23T06:07:05;14.71;99.99
70294;DHT22;74367;35.280;-77.632;2024-03-23T06:09:40;14.68;99.99
70294;DHT22;74367;35.280;-77.632;2024-03-23T06:12:06;14.68;99.99
70294;DHT22;74367;35.280;-77.632;2024-03-23T06:14:32;14.72;99.99
70294;DHT22;74367;35.280;-77.632;2024-03-23T06:17:01;14.73;99.99
70294;DHT22;74367;35.280;-77.632;2024-03-23T06:19:27;14.72;99.99
70294;DHT22;74367;35.280;-77.632;2024-03-23T06:21:54;14.69;99.99
70294;DHT22;74367;35.280;-77.632;2024-03-23T06:24:22;14.71;99.99
70294;DHT22;74367;35.280;-77.632;2024-03-23T06:26:48;14.68;99.99
70294;DHT22;74367;35.280;-77.632;2024-03-23T06:29:14;14.71;99.99
70294;DHT22;74367;35.280;-77.632;2024-03-23T06:31:40;14.69;99.99
70294;DHT22;74367;35.280;-77.632;2024-03-23T06:34:06;14.69;99.99
70294;DHT22;74367;35.280;-77.632;2024-03-23T06:36:32;14.66;99.99
70294;DHT22;74367;35.280;-77.632;2024-03-23T06:38:58;14.69;99.99
70294;DHT22;74367;35.280;-77.632;2024-03-23T06:41:25;14.69;99.99
70294;DHT22;74367;35.280;-77.632;2024-03-23T06:43:52;14.69;99.99
70294;DHT22;74367;35.280;-77.632;2024-03-23T06:46:18;14.69;99.99
70294;DHT22;74367;35.280;-77.632;2024-03-23T06:48:45;14.71;99.99
70294;DHT22;74367;35.280;-77.632;2024-03-23T06:51:11;14.72;99.99
70294;DHT22;74367;35.280;-77.632;2024-03-23T06:53:37;14.86;99.99
70294;DHT22;74367;35.280;-77.632;2024-03-23T06:56:04;14.87;99.99
70294;DHT22;74367;35.280;-77.632;2024-03-23T06:58:31;14.94;99.99
70294;DHT22;74367;35.280;-77.632;2024-03-23T07:00:57;14.93;99.99
70294;DHT22;74367;35.280;-77.632;2024-03-23T07:03:22;14.92;99.99
70294;DHT22;74367;35.280;-77.632;2024-03-23T07:05:49;14.90;99.99
70294;DHT22;74367;35.280;-77.632;2024-03-23T07:08:15;14.94;99.99
70294;DHT22;74367;35.280;-77.632;2024-03-23T07:10:46;14.93;99.99
70294;DHT22;74367;35.280;-77.632;2024-03-23T07:13:12;14.96;99.99
70294;DHT22;74367;35.280;-77.632;2024-03-23T07:15:38;15.00;99.99
70294;DHT22;74367;35.280;-77.632;2024-03-23T07:18:04;15.00;99.99
70294;DHT22;74367;35.280;-77.632;2024-03-23T07:20:30;15.02;99.99
70294;DHT22;74367;35.280;-77.632;2024-03-23T07:22:57;15.07;99.99
70294;DHT22;74367;35.280;-77.632;2024-03-23T07:25:23;15.11;99.99
70294;DHT22;74367;35.280;-77.632;2024-03-23T07:27:50;15.11;99.99
70294;DHT22;74367;35.280;-77.632;2024-03-23T07:30:16;15.14;99.99
70294;DHT22;74367;35.280;-77.632;2024-03-23T07:32:44;15.21;99.99
70294;DHT22;74367;35.280;-77.632;2024-03-23T07:35:11;15.19;99.99
70294;DHT22;74367;35.280;-77.632;2024-03-23T07:37:37;15.24;99.99
70294;DHT22;74367;35.280;-77.632;2024-03-23T07:40:03;15.24;99.99
70294;DHT22;74367;35.280;-77.632;2024-03-23T07:42:29;15.21;99.99
70294;DHT22;74367;35.280;-77.632;2024-03-23T07:44:55;15.30;99.99
70294;DHT22;74367;35.280;-77.632;2024-03-23T07:47:22;15.28;99.99
70294;DHT22;74367;35.280;-77.632;2024-03-23T07:49:48;15.33;99.99
70294;DHT22;74367;35.280;-77.632;2024-03-23T07:52:17;15.37;99.99
70294;DHT22;74367;35.280;-77.632;2024-03-23T07:54:44;15.45;99.99
70294;DHT22;74367;35.280;-77.632;2024-03-23T07:57:10;15.41;99.99
70294;DHT22;74367;35.280;-77.632;2024-03-23T07:59:36;15.41;99.99
70294;DHT22;74367;35.280;-77.632;2024-03-23T08:02:02;15.57;99.99
70294;DHT22;74367;35.280;-77.632;2024-03-23T08:04:29;15.62;99.99
70294;DHT22;74367;35.280;-77.632;2024-03-23T08:06:56;15.62;99.99
70294;DHT22;74367;35.280;-77.632;2024-03-23T08:09:22;15.59;99.99
70294;DHT22;74367;35.280;-77.632;2024-03-23T08:11:48;15.75;99.99
70294;DHT22;74367;35.280;-77.632;2024-03-23T08:14:14;15.72;99.99
70294;DHT22;74367;35.280;-77.632;2024-03-23T08:16:40;15.77;99.99
70294;DHT22;74367;35.280;-77.632;2024-03-23T08:19:07;15.85;99.99
70294;DHT22;74367;35.280;-77.632;2024-03-23T08:21:34;15.83;99.99
70294;DHT22;74367;35.280;-77.632;2024-03-23T08:24:00;15.83;99.99
70294;DHT22;74367;35.280;-77.632;2024-03-23T08:26:26;16.02;99.99
70294;DHT22;74367;35.280;-77.632;2024-03-23T08:28:52;16.01;99.99
70294;DHT22;74367;35.280;-77.632;2024-03-23T08:31:17;15.98;99.99
70294;DHT22;74367;35.280;-77.632;2024-03-23T08:33:43;15.91;99.99
70294;DHT22;74367;35.280;-77.632;2024-03-23T08:36:10;16.03;99.99
70294;DHT22;74367;35.280;-77.632;2024-03-23T08:38:42;16.08;99.99
70294;DHT22;74367;35.280;-77.632;2024-03-23T08:41:10;16.19;99.99
70294;DHT22;74367;35.280;-77.632;2024-03-23T08:43:37;16.12;99.99
70294;DHT22;74367;35.280;-77.632;2024-03-23T08:46:12;16.29;99.99
70294;DHT22;74367;35.280;-77.632;2024-03-23T08:48:40;16.40;99.99
70294;DHT22;74367;35.280;-77.632;2024-03-23T08:51:09;16.47;99.99
70294;DHT22;74367;35.280;-77.632;2024-03-23T08:53:36;16.46;99.99
70294;DHT22;74367;35.280;-77.632;2024-03-23T08:56:03;16.47;99.99
70294;DHT22;74367;35.280;-77.632;2024-03-23T08:58:30;16.47;99.99
70294;DHT22;74367;35.280;-77.632;2024-03-23T09:01:03;16.47;99.99
70294;DHT22;74367;35.280;-77.632;2024-03-23T09:03:29;16.63;99.99
70294;DHT22;74367;35.280;-77.632;2024-03-23T09:05:57;16.54;99.99
70294;DHT22;74367;35.280;-77.632;2024-03-23T09:08:24;16.57;99.99
70294;DHT22;74367;35.280;-77.632;2024-03-23T09:10:52;16.57;99.99
70294;DHT22;74367;35.280;-77.632;2024-03-23T09:13:18;16.57;99.99
70294;DHT22;74367;35.280;-77.632;2024-03-23T09:15:48;16.57;99.99
70294;DHT22;74367;35.280;-77.632;2024-03-23T09:18:15;16.63;99.99
70294;DHT22;74367;35.280;-77.632;2024-03-23T09:20:41;16.67;99.99
70294;DHT22;74367;35.280;-77.632;2024-03-23T09:23:08;16.78;99.99
70294;DHT22;74367;35.280;-77.632;2024-03-23T09:25:37;16.75;99.99
70294;DHT22;74367;35.280;-77.632;2024-03-23T09:28:05;16.87;99.99
70294;DHT22;74367;35.280;-77.632;2024-03-23T09:30:33;16.81;99.99
70294;DHT22;74367;35.280;-77.632;2024-03-23T09:33:10;16.84;99.99
70294;DHT22;74367;35.280;-77.632;2024-03-23T09:35:41;16.88;99.99
70294;DHT22;74367;35.280;-77.632;2024-03-23T09:38:08;16.89;99.99
70294;DHT22;74367;35.280;-77.632;2024-03-23T09:40:39;16.91;99.99
70294;DHT22;74367;35.280;-77.632;2024-03-23T09:43:07;16.88;99.99
70294;DHT22;74367;35.280;-77.632;2024-03-23T09:45:38;16.95;99.99
70294;DHT22;74367;35.280;-77.632;2024-03-23T09:48:07;17.07;99.99
70294;DHT22;74367;35.280;-77.632;2024-03-23T09:50:35;17.11;99.99
70294;DHT22;74367;35.280;-77.632;2024-03-23T09:53:01;17.05;99.99
70294;DHT22;74367;35.280;-77.632;2024-03-23T09:55:27;17.09;99.99
70294;DHT22;74367;35.280;-77.632;2024-03-23T09:57:53;17.14;99.99
70294;DHT22;74367;35.280;-77.632;2024-03-23T10:00:19;17.15;99.99
70294;DHT22;74367;35.280;-77.632;2024-03-23T10:02:45;17.05;99.99
70294;DHT22;74367;35.280;-77.632;2024-03-23T10:05:21;16.99;99.99
70294;DHT22;74367;35.280;-77.632;2024-03-23T10:07:53;17.14;99.99
70294;DHT22;74367;35.280;-77.632;2024-03-23T10:10:19;17.12;99.99
70294;DHT22;74367;35.280;-77.632;2024-03-23T10:12:50;17.12;99.99
70294;DHT22;74367;35.280;-77.632;2024-03-23T10:15:24;17.04;99.99
70294;DHT22;74367;35.280;-77.632;2024-03-23T10:17:50;17.12;99.99
70294;DHT22;74367;35.280;-77.632;2024-03-23T10:20:22;17.14;99.99
70294;DHT22;74367;35.280;-77.632;2024-03-23T10:22:49;16.98;99.99
70294;DHT22;74367;35.280;-77.632;2024-03-23T10:25:16;16.99;99.99
70294;DHT22;74367;35.280;-77.632;2024-03-23T10:27:42;16.98;99.99
70294;DHT22;74367;35.280;-77.632;2024-03-23T10:30:13;17.01;99.99
70294;DHT22;74367;35.280;-77.632;2024-03-23T10:32:42;16.95;99.99
70294;DHT22;74367;35.280;-77.632;2024-03-23T10:35:19;16.95;99.99
70294;DHT22;74367;35.280;-77.632;2024-03-23T10:37:48;16.92;99.99
70294;DHT22;74367;35.280;-77.632;2024-03-23T10:40:18;16.94;99.99
70294;DHT22;74367;35.280;-77.632;2024-03-23T10:42:44;16.88;99.99
70294;DHT22;74367;35.280;-77.632;2024-03-23T10:45:11;16.88;99.99
70294;DHT22;74367;35.280;-77.632;2024-03-23T10:47:37;16.84;99.99
70294;DHT22;74367;35.280;-77.632;2024-03-23T10:50:04;16.82;99.99
70294;DHT22;74367;35.280;-77.632;2024-03-23T10:52:34;16.87;99.99
70294;DHT22;74367;35.280;-77.632;2024-03-23T10:55:04;16.81;99.99
70294;DHT22;74367;35.280;-77.632;2024-03-23T10:57:41;16.87;99.99
70294;DHT22;74367;35.280;-77.632;2024-03-23T11:00:09;16.91;99.99
70294;DHT22;74367;35.280;-77.632;2024-03-23T11:02:36;16.85;99.99
70294;DHT22;74367;35.280;-77.632;2024-03-23T11:05:31;16.87;99.99
70294;DHT22;74367;35.280;-77.632;2024-03-23T11:07:57;16.87;99.99
70294;DHT22;74367;35.280;-77.632;2024-03-23T11:10:28;16.87;99.99
70294;DHT22;74367;35.280;-77.632;2024-03-23T11:13:21;16.82;99.99
70294;DHT22;74367;35.280;-77.632;2024-03-23T11:15:44;16.88;99.99
70294;DHT22;74367;35.280;-77.632;2024-03-23T11:18:10;16.84;99.99
70294;DHT22;74367;35.280;-77.632;2024-03-23T11:20:38;16.95;99.99
70294;DHT22;74367;35.280;-77.632;2024-03-23T11:23:04;16.94;99.99
70294;DHT22;74367;35.280;-77.632;2024-03-23T11:25:30;16.99;99.99
70294;DHT22;74367;35.280;-77.632;2024-03-23T11:27:58;16.99;99.99
70294;DHT22;74367;35.280;-77.632;2024-03-23T11:30:26;16.99;99.99
70294;DHT22;74367;35.280;-77.632;2024-03-23T11:32:57;17.01;99.99
70294;DHT22;74367;35.280;-77.632;2024-03-23T11:35:34;17.01;99.99
70294;DHT22;74367;35.280;-77.632;2024-03-23T11:40:39;17.02;99.99
70294;DHT22;74367;35.280;-77.632;2024-03-23T11:43:08;17.07;99.99
70294;DHT22;74367;35.280;-77.632;2024-03-23T11:45:36;17.05;99.99
70294;DHT22;74367;35.280;-77.632;2024-03-23T11:48:22;17.02;99.99
70294;DHT22;74367;35.280;-77.632;2024-03-23T11:50:51;17.02;99.99
70294;DHT22;74367;35.280;-77.632;2024-03-23T11:53:21;17.05;99.99
70294;DHT22;74367;35.280;-77.632;2024-03-23T11:55:52;16.99;99.99
70294;DHT22;74367;35.280;-77.632;2024-03-23T11:58:20;16.99;99.99
70294;DHT22;74367;35.280;-77.632;2024-03-23T12:00:56;17.09;99.99
70294;DHT22;74367;35.280;-77.632;2024-03-23T12:03:23;17.02;99.99
70294;DHT22;74367;35.280;-77.632;2024-03-23T12:05:58;16.99;99.99
70294;DHT22;74367;35.280;-77.632;2024-03-23T12:08:32;17.01;99.99
70294;DHT22;74367;35.280;-77.632;2024-03-23T12:11:11;16.88;99.99
70294;DHT22;74367;35.280;-77.632;2024-03-23T12:13:38;17.05;99.99
70294;DHT22;74367;35.280;-77.632;2024-03-23T12:16:15;17.02;99.99
70294;DHT22;74367;35.280;-77.632;2024-03-23T12:18:43;17.01;99.99
70294;DHT22;74367;35.280;-77.632;2024-03-23T12:21:09;17.01;99.99
70294;DHT22;74367;35.280;-77.632;2024-03-23T12:23:36;17.04;99.99
70294;DHT22;74367;35.280;-77.632;2024-03-23T12:26:04;17.09;99.99
70294;DHT22;74367;35.280;-77.632;2024-03-23T12:28:31;17.05;99.99
70294;DHT22;74367;35.280;-77.632;2024-03-23T12:30:57;17.05;99.99
70294;DHT22;74367;35.280;-77.632;2024-03-23T12:33:23;17.04;99.99
70294;DHT22;74367;35.280;-77.632;2024-03-23T12:35:50;17.05;99.99
70294;DHT22;74367;35.280;-77.632;2024-03-23T12:38:17;17.02;99.99
70294;DHT22;74367;35.280;-77.632;2024-03-23T12:40:48;17.07;99.99
70294;DHT22;74367;35.280;-77.632;2024-03-23T12:43:15;17.05;99.99
70294;DHT22;74367;35.280;-77.632;2024-03-23T12:45:46;17.05;99.99
70294;DHT22;74367;35.280;-77.632;2024-03-23T12:48:12;17.01;99.99
70294;DHT22;74367;35.280;-77.632;2024-03-23T12:50:39;17.04;99.99
70294;DHT22;74367;35.280;-77.632;2024-03-23T12:53:06;17.04;99.99
70294;DHT22;74367;35.280;-77.632;2024-03-23T12:55:35;17.05;99.99
70294;DHT22;74367;35.280;-77.632;2024-03-23T12:58:02;17.04;99.99
70294;DHT22;74367;35.280;-77.632;2024-03-23T13:00:28;17.09;99.99
70294;DHT22;74367;35.280;-77.632;2024-03-23T13:02:54;17.12;99.99
70294;DHT22;74367;35.280;-77.632;2024-03-23T13:05:21;17.08;99.99
70294;DHT22;74367;35.280;-77.632;2024-03-23T13:07:47;17.15;99.99
70294;DHT22;74367;35.280;-77.632;2024-03-23T13:10:13;17.16;99.99
70294;DHT22;74367;35.280;-77.632;2024-03-23T13:12:40;17.16;99.99
70294;DHT22;74367;35.280;-77.632;2024-03-23T13:15:08;17.18;99.99
70294;DHT22;74367;35.280;-77.632;2024-03-23T13:17:35;17.16;99.99
70294;DHT22;74367;35.280;-77.632;2024-03-23T13:20:01;17.19;99.99
70294;DHT22;74367;35.280;-77.632;2024-03-23T13:22:27;17.15;99.99
70294;DHT22;74367;35.280;-77.632;2024-03-23T13:24:53;17.18;99.99
70294;DHT22;74367;35.280;-77.632;2024-03-23T13:27:19;17.16;99.99
70294;DHT22;74367;35.280;-77.632;2024-03-23T13:29:46;17.18;99.99
70294;DHT22;74367;35.280;-77.632;2024-03-23T13:32:12;17.08;99.99
70294;DHT22;74367;35.280;-77.632;2024-03-23T13:34:39;17.01;99.99
70294;DHT22;74367;35.280;-77.632;2024-03-23T13:37:05;16.99;99.99
70294;DHT22;74367;35.280;-77.632;2024-03-23T13:39:32;16.98;99.99
70294;DHT22;74367;35.280;-77.632;2024-03-23T13:41:59;16.96;99.99
70294;DHT22;74367;35.280;-77.632;2024-03-23T13:44:25;16.96;99.99
70294;DHT22;74367;35.280;-77.632;2024-03-23T13:46:51;16.96;99.99
70294;DHT22;74367;35.280;-77.632;2024-03-23T13:49:27;16.96;99.99
70294;DHT22;74367;35.280;-77.632;2024-03-23T13:51:55;16.95;99.99
70294;DHT22;74367;35.280;-77.632;2024-03-23T13:54:21;16.94;99.99
70294;DHT22;74367;35.280;-77.632;2024-03-23T13:56:49;16.94;99.99
70294;DHT22;74367;35.280;-77.632;2024-03-23T13:59:15;16.89;99.99
70294;DHT22;74367;35.280;-77.632;2024-03-23T14:01:43;16.88;99.99
70294;DHT22;74367;35.280;-77.632;2024-03-23T14:04:09;16.89;99.99
70294;DHT22;74367;35.280;-77.632;2024-03-23T14:06:35;16.91;99.99
70294;DHT22;74367;35.280;-77.632;2024-03-23T14:09:01;16.89;99.99
70294;DHT22;74367;35.280;-77.632;2024-03-23T14:11:30;16.89;99.99
70294;DHT22;74367;35.280;-77.632;2024-03-23T14:13:57;16.92;99.99
70294;DHT22;74367;35.280;-77.632;2024-03-23T14:16:23;16.91;99.99
70294;DHT22;74367;35.280;-77.632;2024-03-23T14:18:49;16.96;99.99
70294;DHT22;74367;35.280;-77.632;2024-03-23T14:21:17;16.96;99.99
70294;DHT22;74367;35.280;-77.632;2024-03-23T14:23:43;16.96;99.99
70294;DHT22;74367;35.280;-77.632;2024-03-23T14:26:09;16.99;99.99
70294;DHT22;74367;35.280;-77.632;2024-03-23T14:28:35;17.01;99.99
70294;DHT22;74367;35.280;-77.632;2024-03-23T14:31:01;17.01;99.99
70294;DHT22;74367;35.280;-77.632;2024-03-23T14:33:28;17.05;99.99
70294;DHT22;74367;35.280;-77.632;2024-03-23T14:35:55;17.08;99.99
70294;DHT22;74367;35.280;-77.632;2024-03-23T14:38:23;17.16;99.99
70294;DHT22;74367;35.280;-77.632;2024-03-23T14:40:49;17.12;99.99
70294;DHT22;74367;35.280;-77.632;2024-03-23T14:43:15;17.19;99.99
70294;DHT22;74367;35.280;-77.632;2024-03-23T14:48:36;17.18;99.99
70294;DHT22;74367;35.280;-77.632;2024-03-23T14:51:03;17.14;99.99
70294;DHT22;74367;35.280;-77.632;2024-03-23T14:53:38;17.15;99.99
70294;DHT22;74367;35.280;-77.632;2024-03-23T14:56:06;17.18;99.99
70294;DHT22;74367;35.280;-77.632;2024-03-23T14:58:33;17.22;99.99
70294;DHT22;74367;35.280;-77.632;2024-03-23T15:01:04;17.14;99.99
70294;DHT22;74367;35.280;-77.632;2024-03-23T15:03:31;17.18;99.99
70294;DHT22;74367;35.280;-77.632;2024-03-23T15:05:58;17.20;99.99
70294;DHT22;74367;35.280;-77.632;2024-03-23T15:08:28;17.19;99.99
70294;DHT22;74367;35.280;-77.632;2024-03-23T15:10:55;17.25;99.99
70294;DHT22;74367;35.280;-77.632;2024-03-23T15:13:24;17.29;99.99
70294;DHT22;74367;35.280;-77.632;2024-03-23T15:15:50;17.28;99.99
70294;DHT22;74367;35.280;-77.632;2024-03-23T15:18:18;17.26;99.99
70294;DHT22;74367;35.280;-77.632;2024-03-23T15:20:59;17.36;99.99
70294;DHT22;74367;35.280;-77.632;2024-03-23T15:23:29;17.30;99.99
70294;DHT22;74367;35.280;-77.632;2024-03-23T15:28:23;17.32;99.99
70294;DHT22;74367;35.280;-77.632;2024-03-23T15:30:49;17.26;99.99
70294;DHT22;74367;35.280;-77.632;2024-03-23T15:33:15;17.35;99.99
70294;DHT22;74367;35.280;-77.632;2024-03-23T15:35:41;17.35;99.99
70294;DHT22;74367;35.280;-77.632;2024-03-23T15:38:07;17.32;99.99
70294;DHT22;74367;35.280;-77.632;2024-03-23T15:40:35;17.22;99.99
70294;DHT22;74367;35.280;-77.632;2024-03-23T15:43:01;17.22;99.99
70294;DHT22;74367;35.280;-77.632;2024-03-23T15:45:28;17.30;99.99
70294;DHT22;74367;35.280;-77.632;2024-03-23T15:47:54;17.23;99.99
70294;DHT22;74367;35.280;-77.632;2024-03-23T15:50:20;17.23;99.99
70294;DHT22;74367;35.280;-77.632;2024-03-23T15:52:46;17.23;99.99
70294;DHT22;74367;35.280;-77.632;2024-03-23T15:55:12;17.28;99.99
70294;DHT22;74367;35.280;-77.632;2024-03-23T15:57:38;17.26;99.99
70294;DHT22;74367;35.280;-77.632;2024-03-23T16:00:04;17.26;99.99
70294;DHT22;74367;35.280;-77.632;2024-03-23T16:02:30;17.29;99.99
70294;DHT22;74367;35.280;-77.632;2024-03-23T16:04:56;17.29;99.99